sensor_id;sensor_type;location;lat;lon;timestamp;P1;durP1;ratioP1;P2;durP2;ratioP2
35847;SDS011;22332;51.954;20.118;2024-02-23T00:03:00;10.60;;;7.80;;
35847;SDS011;22332;51.954;20.118;2024-02-23T00:06:05;10.70;;;7.20;;
35847;SDS011;22332;51.954;20.118;2024-02-23T00:09:11;8.70;;;5.90;;
35847;SDS011;22332;51.954;20.118;2024-02-23T00:12:17;9.00;;;6.60;;
35847;SDS011;22332;51.954;20.118;2024-02-23T00:15:23;9.50;;;7.20;;
35847;SDS011;22332;51.954;20.118;2024-02-23T00:18:28;8.90;;;6.50;;
35847;SDS011;22332;51.954;20.118;2024-02-23T00:21:34;9.30;;;6.70;;
35847;SDS011;22332;51.954;20.118;2024-02-23T00:24:39;9.60;;;7.00;;
35847;SDS011;22332;51.954;20.118;2024-02-23T00:27:45;9.40;;;6.80;;
35847;SDS011;22332;51.954;20.118;2024-02-23T00:30:51;9.50;;;6.90;;
35847;SDS011;22332;51.954;20.118;2024-02-23T00:33:56;9.50;;;6.70;;
35847;SDS011;22332;51.954;20.118;2024-02-23T00:37:02;10.30;;;7.00;;
35847;SDS011;22332;51.954;20.118;2024-02-23T00:40:09;10.30;;;6.90;;
35847;SDS011;22332;51.954;20.118;2024-02-23T00:43:16;9.00;;;6.50;;
35847;SDS011;22332;51.954;20.118;2024-02-23T00:46:22;8.50;;;5.70;;
35847;SDS011;22332;51.954;20.118;2024-02-23T00:49:28;8.90;;;5.70;;
35847;SDS011;22332;51.954;20.118;2024-02-23T00:52:33;7.60;;;6.00;;
35847;SDS011;22332;51.954;20.118;2024-02-23T00:55:39;7.20;;;5.90;;
35847;SDS011;22332;51.954;20.118;2024-02-23T00:58:44;9.30;;;6.40;;
35847;SDS011;22332;51.954;20.118;2024-02-23T01:01:50;8.50;;;6.20;;
35847;SDS011;22332;51.954;20.118;2024-02-23T01:04:55;9.70;;;6.60;;
35847;SDS011;22332;51.954;20.118;2024-02-23T01:08:01;8.40;;;6.20;;
35847;SDS011;22332;51.954;20.118;2024-02-23T01:11:07;8.50;;;6.50;;
35847;SDS011;22332;51.954;20.118;2024-02-23T01:14:13;7.80;;;6.30;;
35847;SDS011;22332;51.954;20.118;2024-02-23T01:17:18;8.90;;;6.40;;
35847;SDS011;22332;51.954;20.118;2024-02-23T01:20:24;9.80;;;6.60;;
35847;SDS011;22332;51.954;20.118;2024-02-23T01:23:29;8.50;;;5.70;;
35847;SDS011;22332;51.954;20.118;2024-02-23T01:26:35;8.20;;;5.60;;
35847;SDS011;22332;51.954;20.118;2024-02-23T01:29:40;10.00;;;6.10;;
35847;SDS011;22332;51.954;20.118;2024-02-23T01:32:46;8.80;;;6.20;;
35847;SDS011;22332;51.954;20.118;2024-02-23T01:35:53;7.60;;;5.60;;
35847;SDS011;22332;51.954;20.118;2024-02-23T01:39:00;7.70;;;5.90;;
35847;SDS011;22332;51.954;20.118;2024-02-23T01:42:07;7.80;;;5.90;;
35847;SDS011;22332;51.954;20.118;2024-02-23T01:45:13;7.10;;;5.70;;
35847;SDS011;22332;51.954;20.118;2024-02-23T01:48:19;8.00;;;6.10;;
35847;SDS011;22332;51.954;20.118;2024-02-23T01:51:25;7.90;;;5.90;;
35847;SDS011;22332;51.954;20.118;2024-02-23T01:54:31;7.40;;;5.90;;
35847;SDS011;22332;51.954;20.118;2024-02-23T01:57:38;8.50;;;6.30;;
35847;SDS011;22332;51.954;20.118;2024-02-23T02:00:44;7.50;;;5.30;;
35847;SDS011;22332;51.954;20.118;2024-02-23T02:03:50;7.80;;;5.00;;
35847;SDS011;22332;51.954;20.118;2024-02-23T02:06:56;7.30;;;5.40;;
35847;SDS011;22332;51.954;20.118;2024-02-23T02:10:04;8.30;;;5.50;;
35847;SDS011;22332;51.954;20.118;2024-02-23T02:13:13;9.70;;;5.70;;
35847;SDS011;22332;51.954;20.118;2024-02-23T02:16:19;6.20;;;4.80;;
35847;SDS011;22332;51.954;20.118;2024-02-23T02:19:24;7.60;;;5.30;;
35847;SDS011;22332;51.954;20.118;2024-02-23T02:22:31;6.80;;;5.10;;
35847;SDS011;22332;51.954;20.118;2024-02-23T02:25:37;6.90;;;5.00;;
35847;SDS011;22332;51.954;20.118;2024-02-23T02:28:43;6.90;;;5.10;;
35847;SDS011;22332;51.954;20.118;2024-02-23T02:31:49;8.00;;;5.40;;
35847;SDS011;22332;51.954;20.118;2024-02-23T02:34:54;6.50;;;4.60;;
35847;SDS011;22332;51.954;20.118;2024-02-23T02:38:00;6.00;;;4.20;;
35847;SDS011;22332;51.954;20.118;2024-02-23T02:41:05;7.00;;;5.00;;
35847;SDS011;22332;51.954;20.118;2024-02-23T02:44:12;6.50;;;4.60;;
35847;SDS011;22332;51.954;20.118;2024-02-23T02:47:17;5.80;;;4.30;;
35847;SDS011;22332;51.954;20.118;2024-02-23T02:50:23;7.10;;;4.70;;
35847;SDS011;22332;51.954;20.118;2024-02-23T02:53:29;5.50;;;4.40;;
35847;SDS011;22332;51.954;20.118;2024-02-23T02:56:34;6.30;;;4.80;;
35847;SDS011;22332;51.954;20.118;2024-02-23T02:59:40;6.90;;;5.00;;
35847;SDS011;22332;51.954;20.118;2024-02-23T03:02:47;6.70;;;4.80;;
35847;SDS011;22332;51.954;20.118;2024-02-23T03:05:52;6.50;;;4.70;;
35847;SDS011;22332;51.954;20.118;2024-02-23T03:08:58;8.30;;;4.00;;
35847;SDS011;22332;51.954;20.118;2024-02-23T03:12:04;6.00;;;4.40;;
35847;SDS011;22332;51.954;20.118;2024-02-23T03:15:10;6.90;;;4.40;;
35847;SDS011;22332;51.954;20.118;2024-02-23T03:18:16;6.30;;;4.60;;
35847;SDS011;22332;51.954;20.118;2024-02-23T03:21:21;6.10;;;4.60;;
35847;SDS011;22332;51.954;20.118;2024-02-23T03:24:27;7.20;;;4.60;;
35847;SDS011;22332;51.954;20.118;2024-02-23T03:27:33;7.10;;;4.70;;
35847;SDS011;22332;51.954;20.118;2024-02-23T03:30:39;6.10;;;4.40;;
35847;SDS011;22332;51.954;20.118;2024-02-23T03:33:45;5.70;;;4.20;;
35847;SDS011;22332;51.954;20.118;2024-02-23T03:36:50;28.10;;;11.40;;
35847;SDS011;22332;51.954;20.118;2024-02-23T03:39:56;9.70;;;6.40;;
35847;SDS011;22332;51.954;20.118;2024-02-23T03:43:02;46.40;;;24.60;;
35847;SDS011;22332;51.954;20.118;2024-02-23T03:46:08;10.90;;;7.00;;
35847;SDS011;22332;51.954;20.118;2024-02-23T03:49:14;11.10;;;6.60;;
35847;SDS011;22332;51.954;20.118;2024-02-23T03:52:20;8.30;;;5.50;;
35847;SDS011;22332;51.954;20.118;2024-02-23T03:55:26;16.30;;;8.30;;
35847;SDS011;22332;51.954;20.118;2024-02-23T03:58:31;12.10;;;6.40;;
35847;SDS011;22332;51.954;20.118;2024-02-23T04:01:37;10.50;;;5.80;;
35847;SDS011;22332;51.954;20.118;2024-02-23T04:04:42;15.80;;;8.50;;
35847;SDS011;22332;51.954;20.118;2024-02-23T04:07:48;12.00;;;6.50;;
35847;SDS011;22332;51.954;20.118;2024-02-23T04:10:54;8.40;;;5.40;;
35847;SDS011;22332;51.954;20.118;2024-02-23T04:14:00;15.80;;;7.70;;
35847;SDS011;22332;51.954;20.118;2024-02-23T04:17:08;7.60;;;5.60;;
35847;SDS011;22332;51.954;20.118;2024-02-23T04:20:14;8.90;;;5.00;;
35847;SDS011;22332;51.954;20.118;2024-02-23T04:23:20;7.70;;;5.30;;
35847;SDS011;22332;51.954;20.118;2024-02-23T04:26:25;23.50;;;12.20;;
35847;SDS011;22332;51.954;20.118;2024-02-23T04:29:31;12.00;;;7.60;;
35847;SDS011;22332;51.954;20.118;2024-02-23T04:32:36;10.70;;;6.30;;
35847;SDS011;22332;51.954;20.118;2024-02-23T04:35:42;8.80;;;5.40;;
35847;SDS011;22332;51.954;20.118;2024-02-23T04:38:48;8.90;;;5.20;;
35847;SDS011;22332;51.954;20.118;2024-02-23T04:41:53;12.70;;;6.90;;
35847;SDS011;22332;51.954;20.118;2024-02-23T04:44:59;8.80;;;5.80;;
35847;SDS011;22332;51.954;20.118;2024-02-23T04:48:05;8.90;;;6.40;;
35847;SDS011;22332;51.954;20.118;2024-02-23T04:51:11;8.20;;;5.80;;
35847;SDS011;22332;51.954;20.118;2024-02-23T04:54:17;9.40;;;6.40;;
35847;SDS011;22332;51.954;20.118;2024-02-23T04:57:22;8.00;;;5.40;;
35847;SDS011;22332;51.954;20.118;2024-02-23T05:00:28;6.70;;;4.90;;
35847;SDS011;22332;51.954;20.118;2024-02-23T05:03:36;9.20;;;5.60;;
35847;SDS011;22332;51.954;20.118;2024-02-23T05:06:42;63.70;;;33.00;;
35847;SDS011;22332;51.954;20.118;2024-02-23T05:09:47;17.70;;;9.70;;
35847;SDS011;22332;51.954;20.118;2024-02-23T05:12:53;11.50;;;7.20;;
35847;SDS011;22332;51.954;20.118;2024-02-23T05:15:59;12.40;;;7.90;;
35847;SDS011;22332;51.954;20.118;2024-02-23T05:19:04;17.60;;;11.40;;
35847;SDS011;22332;51.954;20.118;2024-02-23T05:22:10;8.80;;;5.40;;
35847;SDS011;22332;51.954;20.118;2024-02-23T05:25:15;17.00;;;11.90;;
35847;SDS011;22332;51.954;20.118;2024-02-23T05:28:21;13.70;;;11.50;;
35847;SDS011;22332;51.954;20.118;2024-02-23T05:31:43;10.90;;;8.60;;
35847;SDS011;22332;51.954;20.118;2024-02-23T05:34:50;14.70;;;10.70;;
35847;SDS011;22332;51.954;20.118;2024-02-23T05:37:57;9.40;;;6.80;;
35847;SDS011;22332;51.954;20.118;2024-02-23T05:41:02;7.80;;;5.60;;
35847;SDS011;22332;51.954;20.118;2024-02-23T05:44:08;6.70;;;5.00;;
35847;SDS011;22332;51.954;20.118;2024-02-23T05:47:16;7.90;;;5.40;;
35847;SDS011;22332;51.954;20.118;2024-02-23T05:50:21;7.50;;;5.90;;
35847;SDS011;22332;51.954;20.118;2024-02-23T05:53:27;6.80;;;5.50;;
35847;SDS011;22332;51.954;20.118;2024-02-23T05:56:35;6.70;;;5.20;;
35847;SDS011;22332;51.954;20.118;2024-02-23T05:59:41;8.80;;;5.60;;
35847;SDS011;22332;51.954;20.118;2024-02-23T06:02:46;7.20;;;4.80;;
35847;SDS011;22332;51.954;20.118;2024-02-23T06:05:52;7.20;;;4.80;;
35847;SDS011;22332;51.954;20.118;2024-02-23T06:08:58;7.20;;;5.60;;
35847;SDS011;22332;51.954;20.118;2024-02-23T06:12:06;7.90;;;5.40;;
35847;SDS011;22332;51.954;20.118;2024-02-23T06:15:13;8.50;;;6.00;;
35847;SDS011;22332;51.954;20.118;2024-02-23T06:18:19;8.00;;;4.90;;
35847;SDS011;22332;51.954;20.118;2024-02-23T06:21:24;7.80;;;5.70;;
35847;SDS011;22332;51.954;20.118;2024-02-23T06:24:30;8.50;;;6.50;;
35847;SDS011;22332;51.954;20.118;2024-02-23T06:27:37;12.20;;;8.50;;
35847;SDS011;22332;51.954;20.118;2024-02-23T06:30:42;9.50;;;6.40;;
35847;SDS011;22332;51.954;20.118;2024-02-23T06:33:48;8.60;;;6.30;;
35847;SDS011;22332;51.954;20.118;2024-02-23T06:36:54;9.70;;;5.80;;
35847;SDS011;22332;51.954;20.118;2024-02-23T06:40:00;6.90;;;5.30;;
35847;SDS011;22332;51.954;20.118;2024-02-23T06:43:07;10.10;;;7.00;;
35847;SDS011;22332;51.954;20.118;2024-02-23T06:46:12;8.90;;;6.20;;
35847;SDS011;22332;51.954;20.118;2024-02-23T06:49:18;8.30;;;6.50;;
35847;SDS011;22332;51.954;20.118;2024-02-23T06:52:23;9.20;;;6.50;;
35847;SDS011;22332;51.954;20.118;2024-02-23T06:55:30;8.50;;;6.00;;
35847;SDS011;22332;51.954;20.118;2024-02-23T06:58:37;8.00;;;5.80;;
35847;SDS011;22332;51.954;20.118;2024-02-23T07:01:49;9.20;;;6.10;;
35847;SDS011;22332;51.954;20.118;2024-02-23T07:04:55;8.50;;;6.20;;
35847;SDS011;22332;51.954;20.118;2024-02-23T07:08:02;8.30;;;6.30;;
35847;SDS011;22332;51.954;20.118;2024-02-23T07:11:08;9.20;;;7.10;;
35847;SDS011;22332;51.954;20.118;2024-02-23T07:14:13;9.10;;;6.00;;
35847;SDS011;22332;51.954;20.118;2024-02-23T07:17:20;9.90;;;7.00;;
35847;SDS011;22332;51.954;20.118;2024-02-23T07:20:25;11.60;;;8.10;;
35847;SDS011;22332;51.954;20.118;2024-02-23T07:23:31;15.50;;;10.50;;
35847;SDS011;22332;51.954;20.118;2024-02-23T07:26:37;23.90;;;16.20;;
35847;SDS011;22332;51.954;20.118;2024-02-23T07:29:42;12.30;;;9.30;;
35847;SDS011;22332;51.954;20.118;2024-02-23T07:32:48;9.30;;;7.00;;
35847;SDS011;22332;51.954;20.118;2024-02-23T07:35:53;11.40;;;7.00;;
35847;SDS011;22332;51.954;20.118;2024-02-23T07:38:59;12.30;;;7.80;;
35847;SDS011;22332;51.954;20.118;2024-02-23T07:42:06;13.40;;;8.80;;
35847;SDS011;22332;51.954;20.118;2024-02-23T07:45:13;14.00;;;10.00;;
35847;SDS011;22332;51.954;20.118;2024-02-23T07:48:19;19.30;;;11.30;;
35847;SDS011;22332;51.954;20.118;2024-02-23T07:51:25;24.60;;;14.30;;
35847;SDS011;22332;51.954;20.118;2024-02-23T07:54:30;58.70;;;28.70;;
35847;SDS011;22332;51.954;20.118;2024-02-23T07:57:36;102.80;;;51.10;;
35847;SDS011;22332;51.954;20.118;2024-02-23T08:00:42;55.70;;;30.70;;
35847;SDS011;22332;51.954;20.118;2024-02-23T08:03:49;39.80;;;24.90;;
35847;SDS011;22332;51.954;20.118;2024-02-23T08:06:55;41.30;;;25.30;;
35847;SDS011;22332;51.954;20.118;2024-02-23T08:10:00;17.20;;;10.90;;
35847;SDS011;22332;51.954;20.118;2024-02-23T08:13:07;12.50;;;8.10;;
35847;SDS011;22332;51.954;20.118;2024-02-23T08:16:15;12.30;;;8.30;;
35847;SDS011;22332;51.954;20.118;2024-02-23T08:19:20;11.90;;;8.50;;
35847;SDS011;22332;51.954;20.118;2024-02-23T08:22:26;11.50;;;8.60;;
35847;SDS011;22332;51.954;20.118;2024-02-23T08:25:32;13.30;;;9.90;;
35847;SDS011;22332;51.954;20.118;2024-02-23T08:28:37;10.30;;;7.30;;
35847;SDS011;22332;51.954;20.118;2024-02-23T08:31:43;10.30;;;7.40;;
35847;SDS011;22332;51.954;20.118;2024-02-23T08:34:49;10.20;;;7.40;;
35847;SDS011;22332;51.954;20.118;2024-02-23T08:37:55;9.10;;;6.80;;
35847;SDS011;22332;51.954;20.118;2024-02-23T08:41:01;9.80;;;7.20;;
35847;SDS011;22332;51.954;20.118;2024-02-23T08:44:07;11.20;;;7.80;;
35847;SDS011;22332;51.954;20.118;2024-02-23T08:47:13;9.00;;;6.60;;
35847;SDS011;22332;51.954;20.118;2024-02-23T08:50:19;9.50;;;6.20;;
35847;SDS011;22332;51.954;20.118;2024-02-23T08:53:25;10.00;;;7.20;;
35847;SDS011;22332;51.954;20.118;2024-02-23T08:56:30;8.30;;;6.50;;
35847;SDS011;22332;51.954;20.118;2024-02-23T08:59:40;9.80;;;7.10;;
35847;SDS011;22332;51.954;20.118;2024-02-23T09:02:45;7.80;;;6.10;;
35847;SDS011;22332;51.954;20.118;2024-02-23T09:05:53;8.90;;;7.00;;
35847;SDS011;22332;51.954;20.118;2024-02-23T09:08:58;8.80;;;6.40;;
35847;SDS011;22332;51.954;20.118;2024-02-23T09:12:04;8.00;;;6.50;;
35847;SDS011;22332;51.954;20.118;2024-02-23T09:15:13;10.90;;;8.50;;
35847;SDS011;22332;51.954;20.118;2024-02-23T09:18:18;7.70;;;6.30;;
35847;SDS011;22332;51.954;20.118;2024-02-23T09:21:24;13.00;;;10.40;;
35847;SDS011;22332;51.954;20.118;2024-02-23T09:24:30;9.80;;;6.90;;
35847;SDS011;22332;51.954;20.118;2024-02-23T09:27:35;14.70;;;10.30;;
35847;SDS011;22332;51.954;20.118;2024-02-23T09:30:46;34.90;;;22.60;;
35847;SDS011;22332;51.954;20.118;2024-02-23T09:33:51;21.80;;;13.30;;
35847;SDS011;22332;51.954;20.118;2024-02-23T09:36:58;103.80;;;66.40;;
35847;SDS011;22332;51.954;20.118;2024-02-23T09:40:04;41.50;;;28.00;;
35847;SDS011;22332;51.954;20.118;2024-02-23T09:43:10;106.70;;;72.90;;
35847;SDS011;22332;51.954;20.118;2024-02-23T09:46:18;25.70;;;17.20;;
35847;SDS011;22332;51.954;20.118;2024-02-23T09:49:25;12.70;;;9.50;;
35847;SDS011;22332;51.954;20.118;2024-02-23T09:52:30;22.60;;;15.40;;
35847;SDS011;22332;51.954;20.118;2024-02-23T09:55:37;12.20;;;8.20;;
35847;SDS011;22332;51.954;20.118;2024-02-23T09:58:43;14.20;;;10.40;;
35847;SDS011;22332;51.954;20.118;2024-02-23T10:01:50;11.50;;;7.90;;
35847;SDS011;22332;51.954;20.118;2024-02-23T10:04:56;8.10;;;6.70;;
35847;SDS011;22332;51.954;20.118;2024-02-23T10:08:04;15.70;;;13.00;;
35847;SDS011;22332;51.954;20.118;2024-02-23T10:11:10;8.60;;;6.90;;
35847;SDS011;22332;51.954;20.118;2024-02-23T10:14:16;9.10;;;6.90;;
35847;SDS011;22332;51.954;20.118;2024-02-23T10:17:21;7.60;;;6.20;;
35847;SDS011;22332;51.954;20.118;2024-02-23T10:20:27;7.60;;;5.20;;
35847;SDS011;22332;51.954;20.118;2024-02-23T10:23:34;6.70;;;4.90;;
35847;SDS011;22332;51.954;20.118;2024-02-23T10:26:39;8.80;;;6.20;;
35847;SDS011;22332;51.954;20.118;2024-02-23T10:29:48;14.20;;;9.00;;
35847;SDS011;22332;51.954;20.118;2024-02-23T10:32:55;13.30;;;8.10;;
35847;SDS011;22332;51.954;20.118;2024-02-23T10:36:02;8.50;;;7.10;;
35847;SDS011;22332;51.954;20.118;2024-02-23T10:39:11;9.90;;;6.50;;
35847;SDS011;22332;51.954;20.118;2024-02-23T10:42:21;7.60;;;6.00;;
35847;SDS011;22332;51.954;20.118;2024-02-23T10:45:35;9.50;;;7.10;;
35847;SDS011;22332;51.954;20.118;2024-02-23T10:48:42;7.90;;;5.90;;
35847;SDS011;22332;51.954;20.118;2024-02-23T10:51:48;8.80;;;5.90;;
35847;SDS011;22332;51.954;20.118;2024-02-23T10:54:55;7.40;;;5.60;;
35847;SDS011;22332;51.954;20.118;2024-02-23T10:58:01;8.00;;;6.40;;
35847;SDS011;22332;51.954;20.118;2024-02-23T11:01:10;7.40;;;5.40;;
35847;SDS011;22332;51.954;20.118;2024-02-23T11:04:18;7.60;;;5.80;;
35847;SDS011;22332;51.954;20.118;2024-02-23T11:07:25;10.40;;;5.80;;
35847;SDS011;22332;51.954;20.118;2024-02-23T11:10:33;8.50;;;6.30;;
35847;SDS011;22332;51.954;20.118;2024-02-23T11:13:47;8.50;;;6.00;;
35847;SDS011;22332;51.954;20.118;2024-02-23T11:16:52;9.70;;;7.10;;
35847;SDS011;22332;51.954;20.118;2024-02-23T11:19:58;8.70;;;6.40;;
35847;SDS011;22332;51.954;20.118;2024-02-23T11:23:14;8.10;;;6.00;;
35847;SDS011;22332;51.954;20.118;2024-02-23T11:26:20;9.10;;;5.90;;
35847;SDS011;22332;51.954;20.118;2024-02-23T11:29:30;9.30;;;6.50;;
35847;SDS011;22332;51.954;20.118;2024-02-23T11:32:38;9.30;;;6.40;;
35847;SDS011;22332;51.954;20.118;2024-02-23T11:35:47;32.40;;;19.80;;
35847;SDS011;22332;51.954;20.118;2024-02-23T11:38:55;14.20;;;9.50;;
35847;SDS011;22332;51.954;20.118;2024-02-23T11:42:03;79.80;;;49.70;;
35847;SDS011;22332;51.954;20.118;2024-02-23T11:45:09;19.70;;;14.40;;
35847;SDS011;22332;51.954;20.118;2024-02-23T11:48:15;12.50;;;8.70;;
35847;SDS011;22332;51.954;20.118;2024-02-23T11:51:23;35.00;;;22.50;;
35847;SDS011;22332;51.954;20.118;2024-02-23T11:54:31;13.00;;;8.50;;
35847;SDS011;22332;51.954;20.118;2024-02-23T11:57:37;11.50;;;7.10;;
35847;SDS011;22332;51.954;20.118;2024-02-23T12:00:43;9.20;;;6.10;;
35847;SDS011;22332;51.954;20.118;2024-02-23T12:03:49;8.20;;;5.70;;
35847;SDS011;22332;51.954;20.118;2024-02-23T12:06:55;12.30;;;8.00;;
35847;SDS011;22332;51.954;20.118;2024-02-23T12:10:01;12.40;;;8.10;;
35847;SDS011;22332;51.954;20.118;2024-02-23T12:13:10;9.20;;;6.40;;
35847;SDS011;22332;51.954;20.118;2024-02-23T12:16:16;11.50;;;7.40;;
35847;SDS011;22332;51.954;20.118;2024-02-23T12:19:21;8.30;;;6.10;;
35847;SDS011;22332;51.954;20.118;2024-02-23T12:22:27;8.80;;;5.80;;
35847;SDS011;22332;51.954;20.118;2024-02-23T12:25:33;8.00;;;6.10;;
35847;SDS011;22332;51.954;20.118;2024-02-23T12:28:39;9.60;;;6.10;;
35847;SDS011;22332;51.954;20.118;2024-02-23T12:31:44;7.90;;;6.30;;
35847;SDS011;22332;51.954;20.118;2024-02-23T12:34:50;8.90;;;6.60;;
35847;SDS011;22332;51.954;20.118;2024-02-23T12:37:57;7.50;;;6.30;;
35847;SDS011;22332;51.954;20.118;2024-02-23T12:41:03;7.60;;;6.30;;
35847;SDS011;22332;51.954;20.118;2024-02-23T12:44:10;8.30;;;6.50;;
35847;SDS011;22332;51.954;20.118;2024-02-23T12:47:15;9.30;;;6.50;;
35847;SDS011;22332;51.954;20.118;2024-02-23T12:50:22;9.70;;;6.60;;
35847;SDS011;22332;51.954;20.118;2024-02-23T12:53:31;9.80;;;6.90;;
35847;SDS011;22332;51.954;20.118;2024-02-23T12:56:38;9.50;;;7.10;;
35847;SDS011;22332;51.954;20.118;2024-02-23T12:59:45;9.30;;;7.30;;
35847;SDS011;22332;51.954;20.118;2024-02-23T13:02:50;9.30;;;6.80;;
35847;SDS011;22332;51.954;20.118;2024-02-23T13:05:57;10.60;;;7.70;;
35847;SDS011;22332;51.954;20.118;2024-02-23T13:09:03;12.40;;;8.70;;
35847;SDS011;22332;51.954;20.118;2024-02-23T13:12:10;16.00;;;12.70;;
35847;SDS011;22332;51.954;20.118;2024-02-23T13:15:16;13.20;;;9.90;;
35847;SDS011;22332;51.954;20.118;2024-02-23T13:18:22;11.30;;;8.90;;
35847;SDS011;22332;51.954;20.118;2024-02-23T13:21:27;12.70;;;8.80;;
35847;SDS011;22332;51.954;20.118;2024-02-23T13:24:35;12.30;;;7.60;;
35847;SDS011;22332;51.954;20.118;2024-02-23T13:27:43;14.90;;;10.10;;
35847;SDS011;22332;51.954;20.118;2024-02-23T13:30:48;12.50;;;9.20;;
35847;SDS011;22332;51.954;20.118;2024-02-23T13:33:54;12.80;;;8.90;;
35847;SDS011;22332;51.954;20.118;2024-02-23T13:36:59;13.20;;;8.90;;
35847;SDS011;22332;51.954;20.118;2024-02-23T13:40:06;15.30;;;11.80;;
35847;SDS011;22332;51.954;20.118;2024-02-23T13:43:13;11.20;;;8.10;;
35847;SDS011;22332;51.954;20.118;2024-02-23T13:46:19;9.30;;;7.10;;
35847;SDS011;22332;51.954;20.118;2024-02-23T13:49:24;10.80;;;7.30;;
35847;SDS011;22332;51.954;20.118;2024-02-23T13:52:30;11.30;;;7.80;;
35847;SDS011;22332;51.954;20.118;2024-02-23T13:55:35;9.90;;;7.70;;
35847;SDS011;22332;51.954;20.118;2024-02-23T13:58:41;12.50;;;8.00;;
35847;SDS011;22332;51.954;20.118;2024-02-23T14:01:47;11.50;;;8.00;;
35847;SDS011;22332;51.954;20.118;2024-02-23T14:04:53;8.30;;;6.40;;
35847;SDS011;22332;51.954;20.118;2024-02-23T14:07:59;10.40;;;6.90;;
35847;SDS011;22332;51.954;20.118;2024-02-23T14:11:04;8.80;;;6.90;;
35847;SDS011;22332;51.954;20.118;2024-02-23T14:14:10;10.50;;;8.10;;
35847;SDS011;22332;51.954;20.118;2024-02-23T14:17:16;11.00;;;8.10;;
35847;SDS011;22332;51.954;20.118;2024-02-23T14:20:22;10.60;;;7.80;;
35847;SDS011;22332;51.954;20.118;2024-02-23T14:23:27;9.10;;;6.50;;
35847;SDS011;22332;51.954;20.118;2024-02-23T14:26:33;19.00;;;10.90;;
35847;SDS011;22332;51.954;20.118;2024-02-23T14:29:38;22.90;;;14.20;;
35847;SDS011;22332;51.954;20.118;2024-02-23T14:32:45;34.70;;;19.20;;
35847;SDS011;22332;51.954;20.118;2024-02-23T14:35:51;36.60;;;20.90;;
35847;SDS011;22332;51.954;20.118;2024-02-23T14:38:58;17.80;;;10.40;;
35847;SDS011;22332;51.954;20.118;2024-02-23T14:42:06;18.50;;;14.00;;
35847;SDS011;22332;51.954;20.118;2024-02-23T14:45:12;12.40;;;9.40;;
35847;SDS011;22332;51.954;20.118;2024-02-23T14:48:19;13.30;;;11.30;;
35847;SDS011;22332;51.954;20.118;2024-02-23T14:51:24;12.20;;;9.80;;
35847;SDS011;22332;51.954;20.118;2024-02-23T14:54:32;15.10;;;12.20;;
35847;SDS011;22332;51.954;20.118;2024-02-23T14:57:38;20.60;;;15.30;;
35847;SDS011;22332;51.954;20.118;2024-02-23T15:00:44;16.60;;;12.30;;
35847;SDS011;22332;51.954;20.118;2024-02-23T15:03:50;12.80;;;9.30;;
35847;SDS011;22332;51.954;20.118;2024-02-23T15:06:56;10.50;;;8.00;;
35847;SDS011;22332;51.954;20.118;2024-02-23T15:10:02;21.00;;;16.20;;
35847;SDS011;22332;51.954;20.118;2024-02-23T15:13:11;23.60;;;16.60;;
35847;SDS011;22332;51.954;20.118;2024-02-23T15:16:16;17.80;;;11.50;;
35847;SDS011;22332;51.954;20.118;2024-02-23T15:19:22;15.90;;;11.40;;
35847;SDS011;22332;51.954;20.118;2024-02-23T15:22:30;31.30;;;17.30;;
35847;SDS011;22332;51.954;20.118;2024-02-23T15:25:36;45.80;;;21.50;;
35847;SDS011;22332;51.954;20.118;2024-02-23T15:28:41;41.80;;;22.50;;
35847;SDS011;22332;51.954;20.118;2024-02-23T15:31:48;54.50;;;24.30;;
35847;SDS011;22332;51.954;20.118;2024-02-23T15:34:54;47.90;;;22.30;;
35847;SDS011;22332;51.954;20.118;2024-02-23T15:38:00;148.50;;;54.20;;
35847;SDS011;22332;51.954;20.118;2024-02-23T15:41:05;37.50;;;19.60;;
35847;SDS011;22332;51.954;20.118;2024-02-23T15:44:11;70.40;;;32.60;;
35847;SDS011;22332;51.954;20.118;2024-02-23T15:47:17;59.50;;;30.40;;
35847;SDS011;22332;51.954;20.118;2024-02-23T15:50:22;102.00;;;49.10;;
35847;SDS011;22332;51.954;20.118;2024-02-23T15:53:30;45.50;;;25.50;;
35847;SDS011;22332;51.954;20.118;2024-02-23T15:56:36;31.30;;;18.20;;
35847;SDS011;22332;51.954;20.118;2024-02-23T15:59:41;34.70;;;19.20;;
35847;SDS011;22332;51.954;20.118;2024-02-23T16:02:47;44.00;;;22.00;;
35847;SDS011;22332;51.954;20.118;2024-02-23T16:05:54;87.60;;;36.50;;
35847;SDS011;22332;51.954;20.118;2024-02-23T16:09:00;47.00;;;25.80;;
35847;SDS011;22332;51.954;20.118;2024-02-23T16:12:10;56.90;;;33.70;;
35847;SDS011;22332;51.954;20.118;2024-02-23T16:15:16;49.50;;;26.40;;
35847;SDS011;22332;51.954;20.118;2024-02-23T16:18:22;26.00;;;17.00;;
35847;SDS011;22332;51.954;20.118;2024-02-23T16:21:28;29.80;;;19.50;;
35847;SDS011;22332;51.954;20.118;2024-02-23T16:24:34;27.10;;;18.80;;
35847;SDS011;22332;51.954;20.118;2024-02-23T16:27:40;26.90;;;18.70;;
35847;SDS011;22332;51.954;20.118;2024-02-23T16:30:46;29.30;;;21.60;;
35847;SDS011;22332;51.954;20.118;2024-02-23T16:33:52;32.80;;;22.60;;
35847;SDS011;22332;51.954;20.118;2024-02-23T16:36:57;23.70;;;16.30;;
35847;SDS011;22332;51.954;20.118;2024-02-23T16:40:03;27.30;;;18.20;;
35847;SDS011;22332;51.954;20.118;2024-02-23T16:43:10;27.20;;;19.10;;
35847;SDS011;22332;51.954;20.118;2024-02-23T16:46:16;31.00;;;21.10;;
35847;SDS011;22332;51.954;20.118;2024-02-23T16:49:22;33.20;;;22.20;;
35847;SDS011;22332;51.954;20.118;2024-02-23T16:52:27;38.30;;;25.20;;
35847;SDS011;22332;51.954;20.118;2024-02-23T16:55:33;32.50;;;22.10;;
35847;SDS011;22332;51.954;20.118;2024-02-23T16:58:38;32.20;;;22.30;;
35847;SDS011;22332;51.954;20.118;2024-02-23T17:01:44;34.10;;;24.10;;
35847;SDS011;22332;51.954;20.118;2024-02-23T17:04:50;33.60;;;25.90;;
35847;SDS011;22332;51.954;20.118;2024-02-23T17:07:56;34.70;;;24.10;;
35847;SDS011;22332;51.954;20.118;2024-02-23T17:11:02;32.70;;;23.80;;
35847;SDS011;22332;51.954;20.118;2024-02-23T17:14:09;42.30;;;27.60;;
35847;SDS011;22332;51.954;20.118;2024-02-23T17:17:14;32.20;;;21.50;;
35847;SDS011;22332;51.954;20.118;2024-02-23T17:20:21;32.00;;;20.70;;
35847;SDS011;22332;51.954;20.118;2024-02-23T17:23:27;45.90;;;29.10;;
35847;SDS011;22332;51.954;20.118;2024-02-23T17:26:33;45.40;;;29.00;;
35847;SDS011;22332;51.954;20.118;2024-02-23T17:29:38;41.20;;;27.60;;
35847;SDS011;22332;51.954;20.118;2024-02-23T17:32:44;41.40;;;28.20;;
35847;SDS011;22332;51.954;20.118;2024-02-23T17:35:50;74.10;;;45.70;;
35847;SDS011;22332;51.954;20.118;2024-02-23T17:38:55;57.60;;;40.80;;
35847;SDS011;22332;51.954;20.118;2024-02-23T17:42:01;39.30;;;28.50;;
35847;SDS011;22332;51.954;20.118;2024-02-23T17:45:07;36.00;;;23.80;;
35847;SDS011;22332;51.954;20.118;2024-02-23T17:48:13;42.40;;;29.20;;
35847;SDS011;22332;51.954;20.118;2024-02-23T17:51:19;37.40;;;24.90;;
35847;SDS011;22332;51.954;20.118;2024-02-23T17:54:25;37.10;;;23.10;;
35847;SDS011;22332;51.954;20.118;2024-02-23T17:57:31;43.50;;;26.20;;
35847;SDS011;22332;51.954;20.118;2024-02-23T18:00:37;56.30;;;34.60;;
35847;SDS011;22332;51.954;20.118;2024-02-23T18:03:42;56.10;;;34.40;;
35847;SDS011;22332;51.954;20.118;2024-02-23T18:06:48;50.80;;;34.10;;
35847;SDS011;22332;51.954;20.118;2024-02-23T18:09:54;46.20;;;28.50;;
35847;SDS011;22332;51.954;20.118;2024-02-23T18:12:59;31.40;;;21.20;;